createdAt,value
2023-01-20T00:01:48.158Z,13.57
2023-01-20T00:04:50.211Z,13.73
2023-01-20T00:07:52.265Z,13.02
2023-01-20T00:10:54.462Z,12.25
2023-01-20T00:13:58.545Z,12.75
2023-01-20T00:17:00.482Z,14.63
2023-01-20T00:20:03.387Z,13.68
2023-01-20T00:23:05.304Z,12.38
2023-01-20T00:26:09.287Z,13.85
2023-01-20T00:29:11.541Z,13.90
2023-01-20T00:32:13.538Z,13.15
2023-01-20T00:35:15.831Z,13.57
2023-01-20T00:38:18.290Z,13.68
2023-01-20T00:41:20.621Z,13.50
2023-01-20T00:44:22.609Z,14.27
2023-01-20T00:47:24.666Z,14.10
2023-01-20T00:50:26.501Z,13.95
2023-01-20T00:53:28.839Z,14.20
2023-01-20T00:56:30.936Z,14.57
2023-01-20T00:59:32.745Z,13.50
2023-01-20T01:02:39.937Z,13.77
2023-01-20T01:05:42.001Z,13.82
2023-01-20T01:08:45.026Z,13.57
2023-01-20T01:11:46.957Z,13.70
2023-01-20T01:14:49.020Z,13.70
2023-01-20T01:17:51.834Z,14.80
2023-01-20T01:20:53.715Z,14.98
2023-01-20T01:23:55.537Z,15.35
2023-01-20T01:26:57.525Z,15.73
2023-01-20T01:29:59.426Z,15.23
2023-01-20T01:33:01.445Z,15.05
2023-01-20T01:36:04.337Z,15.05
2023-01-20T01:39:06.501Z,15.73
2023-01-20T01:42:17.803Z,15.20
2023-01-20T01:45:28.985Z,15.98
2023-01-20T01:48:33.459Z,15.38
2023-01-20T01:51:41.609Z,15.00
2023-01-20T01:54:45.664Z,15.20
2023-01-20T01:58:05.524Z,15.55
2023-01-20T02:01:08.262Z,15.55
2023-01-20T02:04:15.573Z,14.40
2023-01-20T02:07:20.936Z,15.15
2023-01-20T02:10:22.857Z,14.20
2023-01-20T02:13:25.039Z,14.35
2023-01-20T02:16:35.224Z,14.05
2023-01-20T02:19:51.694Z,13.52
2023-01-20T02:23:30.540Z,14.50
2023-01-20T02:26:58.335Z,14.25
2023-01-20T02:30:11.954Z,12.98
2023-01-20T02:33:28.901Z,13.93
2023-01-20T02:36:47.968Z,13.88
2023-01-20T02:40:02.048Z,13.88
2023-01-20T02:43:16.302Z,14.40
2023-01-20T02:46:38.619Z,13.93
2023-01-20T02:50:20.712Z,12.88
2023-01-20T02:53:26.048Z,12.60
2023-01-20T02:56:30.737Z,12.48
2023-01-20T02:59:37.720Z,14.18
2023-01-20T03:02:41.917Z,13.35
2023-01-20T03:05:53.377Z,12.77
2023-01-20T03:08:57.893Z,12.73
2023-01-20T03:12:07.629Z,13.30
2023-01-20T03:15:10.898Z,12.90
2023-01-20T03:21:14.726Z,13.95
2023-01-20T03:24:16.818Z,13.30
2023-01-20T03:27:18.654Z,14.45
2023-01-20T03:30:21.437Z,12.75
2023-01-20T03:33:24.051Z,14.00
2023-01-20T03:36:28.211Z,14.27
2023-01-20T03:39:30.893Z,14.27
2023-01-20T03:43:14.912Z,14.23
2023-01-20T03:46:28.618Z,12.88
2023-01-20T03:50:05.023Z,13.73
2023-01-20T03:53:09.759Z,14.48
2023-01-20T03:56:21.735Z,14.52
2023-01-20T03:59:25.251Z,14.77
2023-01-20T04:02:29.055Z,14.88
2023-01-20T04:05:32.519Z,14.65
2023-01-20T04:08:37.018Z,14.18
2023-01-20T04:11:39.230Z,15.25
2023-01-20T04:14:41.327Z,15.25
2023-01-20T04:17:43.426Z,15.20
2023-01-20T04:20:49.138Z,15.15
2023-01-20T04:24:07.690Z,16.17
2023-01-20T04:27:09.851Z,15.18
2023-01-20T04:30:13.588Z,14.02
2023-01-20T04:33:15.419Z,15.23
2023-01-20T04:36:17.473Z,13.75
2023-01-20T04:39:19.317Z,14.43
2023-01-20T04:42:21.219Z,15.05
2023-01-20T04:45:23.455Z,14.40
2023-01-20T04:48:25.523Z,14.18
2023-01-20T04:51:27.450Z,15.63
2023-01-20T04:54:29.518Z,14.60
2023-01-20T04:57:31.373Z,15.68
2023-01-20T05:00:33.198Z,15.63
2023-01-20T05:03:35.712Z,14.32
2023-01-20T05:06:38.085Z,14.50
2023-01-20T05:09:39.903Z,15.27
2023-01-20T05:12:41.914Z,14.32
2023-01-20T05:15:44.389Z,13.95
2023-01-20T05:18:46.324Z,16.03
2023-01-20T05:21:48.226Z,14.85
2023-01-20T05:24:50.271Z,14.70
2023-01-20T05:27:52.411Z,14.35
2023-01-20T05:30:54.393Z,14.70
2023-01-20T05:33:56.329Z,14.88
2023-01-20T05:36:58.376Z,14.75
2023-01-20T05:40:00.154Z,14.70
2023-01-20T05:43:02.880Z,15.02
2023-01-20T05:46:05.931Z,11.02
2023-01-20T05:49:07.891Z,14.57
2023-01-20T05:52:09.715Z,14.70
2023-01-20T05:55:11.807Z,14.05
2023-01-20T05:58:13.786Z,14.55
2023-01-20T06:01:17.725Z,14.85
2023-01-20T06:04:19.712Z,13.93
2023-01-20T06:07:21.629Z,14.82
2023-01-20T06:10:28.251Z,15.07
2023-01-20T06:13:30.264Z,16.02
2023-01-20T06:16:32.340Z,14.90
2023-01-20T06:19:34.298Z,15.25
2023-01-20T06:22:36.153Z,16.10
2023-01-20T06:25:38.192Z,16.65
2023-01-20T06:28:40.700Z,16.17
2023-01-20T06:31:45.706Z,16.73
2023-01-20T06:34:47.802Z,17.42
2023-01-20T06:37:49.869Z,17.38
2023-01-20T06:40:56.861Z,15.85
2023-01-20T06:43:58.672Z,16.67
2023-01-20T06:47:00.789Z,16.60
2023-01-20T06:50:02.665Z,16.27
2023-01-20T06:53:04.769Z,17.02
2023-01-20T06:59:23.797Z,15.00
2023-01-20T07:02:26.361Z,15.50
2023-01-20T07:05:31.128Z,14.73
2023-01-20T07:08:33.179Z,14.90
2023-01-20T07:11:35.987Z,15.18
2023-01-20T07:14:37.894Z,12.88
2023-01-20T07:17:39.944Z,14.75
2023-01-20T07:20:43.948Z,13.73
2023-01-20T07:23:46.605Z,13.73
2023-01-20T07:26:48.688Z,15.48
2023-01-20T07:29:50.535Z,14.18
2023-01-20T07:32:53.569Z,14.55
2023-01-20T07:35:55.483Z,15.02
2023-01-20T07:38:57.589Z,14.30
2023-01-20T07:41:59.529Z,15.25
2023-01-20T07:45:01.442Z,14.18
2023-01-20T07:48:03.972Z,14.88
2023-01-20T07:51:08.521Z,12.77
2023-01-20T07:54:11.910Z,13.85
2023-01-20T07:57:13.929Z,13.82
2023-01-20T08:00:18.155Z,14.60
2023-01-20T08:03:20.087Z,14.77
2023-01-20T08:06:24.449Z,14.50
2023-01-20T08:09:26.639Z,13.10
2023-01-20T08:12:29.672Z,13.52
2023-01-20T08:15:31.707Z,13.20
2023-01-20T08:18:35.406Z,13.52
2023-01-20T08:21:37.684Z,14.23
2023-01-20T08:24:39.654Z,13.57
2023-01-20T08:27:41.806Z,14.90
2023-01-20T08:30:43.829Z,13.77
2023-01-20T08:33:46.911Z,14.07
2023-01-20T08:36:50.110Z,14.63
2023-01-20T08:39:52.048Z,13.57
2023-01-20T08:42:54.192Z,14.15
2023-01-20T08:46:07.785Z,14.38
2023-01-20T08:49:15.504Z,14.77
2023-01-20T08:52:17.465Z,15.98
2023-01-20T08:55:19.508Z,15.60
2023-01-20T08:58:25.218Z,15.98
2023-01-20T09:01:29.891Z,14.85
2023-01-20T09:04:31.924Z,14.65
2023-01-20T09:07:33.755Z,15.20
2023-01-20T09:10:36.182Z,14.88
2023-01-20T09:13:38.668Z,11.03
2023-01-20T09:16:40.642Z,14.00
2023-01-20T09:19:45.086Z,13.10
2023-01-20T09:22:47.320Z,12.27
2023-01-20T09:25:49.204Z,12.73
2023-01-20T09:28:51.218Z,12.50
2023-01-20T09:31:58.462Z,13.70
2023-01-20T09:35:03.023Z,13.60
2023-01-20T09:38:25.061Z,13.82
2023-01-20T09:41:53.993Z,14.23
2023-01-20T09:45:06.157Z,13.95
2023-01-20T09:48:39.517Z,14.77
2023-01-20T09:52:45.186Z,13.68
2023-01-20T09:56:05.605Z,13.68
2023-01-20T09:59:10.540Z,12.90
2023-01-20T10:02:23.631Z,12.93
2023-01-20T10:05:33.081Z,13.85
2023-01-20T10:09:04.419Z,16.17
2023-01-20T10:12:11.009Z,14.40
2023-01-20T10:15:30.375Z,13.98
2023-01-20T10:18:46.873Z,13.50
2023-01-20T10:21:58.405Z,14.50
2023-01-20T10:25:06.454Z,13.02
2023-01-20T10:28:15.845Z,13.70
2023-01-20T10:31:24.129Z,14.60
2023-01-20T10:34:34.503Z,13.63
2023-01-20T10:37:36.885Z,13.13
2023-01-20T10:40:47.509Z,13.30
2023-01-20T10:43:50.053Z,14.23
2023-01-20T10:47:07.139Z,10.73
2023-01-20T10:50:50.743Z,12.00
2023-01-20T10:54:04.360Z,13.70
2023-01-20T10:57:12.557Z,13.68
2023-01-20T11:00:26.081Z,12.63
2023-01-20T11:06:30.955Z,10.20
2023-01-20T11:10:04.759Z,13.32
2023-01-20T11:13:10.064Z,12.55
2023-01-20T11:16:26.471Z,12.70
2023-01-20T11:19:49.239Z,13.13
2023-01-20T11:22:51.160Z,12.10
2023-01-20T11:25:59.482Z,13.43
2023-01-20T11:29:10.473Z,13.55
2023-01-20T11:32:31.680Z,12.40
2023-01-20T11:35:33.586Z,13.10
2023-01-20T11:38:44.727Z,13.20
2023-01-20T11:41:47.311Z,13.43
2023-01-20T11:44:54.541Z,13.77
2023-01-20T11:48:30.663Z,14.10
2023-01-20T11:51:56.632Z,14.10
2023-01-20T11:55:28.123Z,14.68
2023-01-20T11:58:48.587Z,13.90
2023-01-20T12:01:52.476Z,14.57
2023-01-20T12:05:09.784Z,15.20
2023-01-20T12:08:17.924Z,15.55
2023-01-20T12:11:28.676Z,15.73
2023-01-20T12:15:02.082Z,15.23
2023-01-20T12:18:19.185Z,14.43
2023-01-20T12:21:24.426Z,14.57
2023-01-20T12:24:52.762Z,14.63
2023-01-20T12:28:15.328Z,14.35
2023-01-20T12:31:24.126Z,14.30
2023-01-20T12:34:31.091Z,13.57
2023-01-20T12:37:51.112Z,13.50
2023-01-20T12:40:55.034Z,13.45
2023-01-20T12:44:21.415Z,13.63
2023-01-20T12:47:54.666Z,11.90
2023-01-20T12:51:28.429Z,13.43
2023-01-20T12:54:47.720Z,12.73
2023-01-20T12:58:07.341Z,12.70
2023-01-20T13:01:12.455Z,11.35
2023-01-20T13:05:08.958Z,11.77
2023-01-20T13:08:48.219Z,11.85
2023-01-20T13:12:21.482Z,12.18
2023-01-20T13:15:34.261Z,12.13
2023-01-20T13:18:50.983Z,12.23
2023-01-20T13:22:07.280Z,11.30
2023-01-20T13:25:20.265Z,11.48
2023-01-20T13:28:26.985Z,11.52
2023-01-20T13:31:36.775Z,11.32
2023-01-20T13:34:40.228Z,12.15
2023-01-20T13:40:53.850Z,13.57
2023-01-20T13:43:55.987Z,13.50
2023-01-20T13:46:57.864Z,13.52
2023-01-20T13:50:22.885Z,12.57
2023-01-20T13:53:28.141Z,12.43
2023-01-20T13:56:35.236Z,13.23
2023-01-20T13:59:37.438Z,12.68
2023-01-20T14:02:40.178Z,12.60
2023-01-20T14:05:42.339Z,12.73
2023-01-20T14:08:53.564Z,11.88
2023-01-20T14:11:57.720Z,12.57
2023-01-20T14:14:59.758Z,11.98
2023-01-20T14:18:02.060Z,11.93
2023-01-20T14:21:22.061Z,12.38
2023-01-20T14:24:30.838Z,11.18
2023-01-20T14:27:36.917Z,11.52
2023-01-20T14:30:39.022Z,11.32
2023-01-20T14:33:45.216Z,11.00
2023-01-20T14:36:47.861Z,11.73
2023-01-20T14:39:51.432Z,10.85
2023-01-20T14:43:12.953Z,11.68
2023-01-20T14:46:18.258Z,10.02
2023-01-20T14:49:22.916Z,11.07
2023-01-20T14:52:30.892Z,10.82
2023-01-20T14:55:45.991Z,11.32
2023-01-20T14:58:49.516Z,10.93
2023-01-20T15:02:05.935Z,11.90
2023-01-20T15:05:28.652Z,11.55
2023-01-20T15:08:37.431Z,9.05
2023-01-20T15:11:39.578Z,13.55
2023-01-20T15:14:56.652Z,14.38
2023-01-20T15:18:23.890Z,13.60
2023-01-20T15:21:29.597Z,12.95
2023-01-20T15:24:34.636Z,12.05
2023-01-20T15:27:37.101Z,11.50
2023-01-20T15:30:39.296Z,10.97
2023-01-20T15:33:41.488Z,11.85
2023-01-20T15:36:49.569Z,12.25
2023-01-20T15:39:51.459Z,11.60
2023-01-20T15:42:53.801Z,12.35
2023-01-20T15:45:56.165Z,11.63
2023-01-20T15:48:58.199Z,12.70
2023-01-20T15:52:00.301Z,11.93
2023-01-20T15:55:04.652Z,13.98
2023-01-20T15:58:27.503Z,13.38
2023-01-20T16:01:29.982Z,12.70
2023-01-20T16:04:32.106Z,12.95
2023-01-20T16:07:34.628Z,13.23
2023-01-20T16:10:38.871Z,13.20
2023-01-20T16:13:42.635Z,14.10
2023-01-20T16:16:46.053Z,15.07
2023-01-20T16:19:56.330Z,14.60
2023-01-20T16:22:58.449Z,13.60
2023-01-20T16:26:03.006Z,11.00
2023-01-20T16:29:05.115Z,10.20
2023-01-20T16:32:07.085Z,10.40
2023-01-20T16:35:10.324Z,9.95
2023-01-20T16:38:20.516Z,9.00
2023-01-20T16:41:25.333Z,7.72
2023-01-20T16:44:27.785Z,8.10
2023-01-20T16:47:29.912Z,7.70
2023-01-20T16:50:34.533Z,7.60
2023-01-20T16:53:36.600Z,10.05
2023-01-20T16:56:40.267Z,14.82
2023-01-20T16:59:42.428Z,18.27
2023-01-20T17:02:45.645Z,26.85
2023-01-20T17:05:50.551Z,23.75
2023-01-20T17:08:54.598Z,17.13
2023-01-20T17:12:02.152Z,14.57
2023-01-20T17:15:09.816Z,12.43
2023-01-20T17:19:11.158Z,15.48
2023-01-20T17:22:48.116Z,18.95
2023-01-20T17:25:56.045Z,18.85
2023-01-20T17:29:11.858Z,20.40
2023-01-20T17:32:20.247Z,22.30
2023-01-20T17:35:32.577Z,27.67
2023-01-20T17:38:41.932Z,32.65
2023-01-20T17:42:05.262Z,23.13
2023-01-20T17:49:07.821Z,18.70
2023-01-20T17:52:26.053Z,19.23
2023-01-20T17:55:28.334Z,18.33
2023-01-20T17:58:30.187Z,17.88
2023-01-20T18:01:38.906Z,19.50
2023-01-20T18:04:46.542Z,23.65
2023-01-20T18:07:50.326Z,40.05
2023-01-20T18:11:02.667Z,26.70
2023-01-20T18:14:11.362Z,26.58
2023-01-20T18:17:17.649Z,29.35
2023-01-20T18:20:22.700Z,23.48
2023-01-20T18:23:30.325Z,27.40
2023-01-20T18:26:36.685Z,23.50
2023-01-20T18:33:55.048Z,18.25
2023-01-20T18:37:33.325Z,32.00
2023-01-20T18:40:52.302Z,35.08
2023-01-20T18:43:59.769Z,32.92
2023-01-20T18:47:10.070Z,34.90
2023-01-20T18:50:22.855Z,24.15
2023-01-20T18:53:42.996Z,25.38
2023-01-20T18:57:05.447Z,40.22
2023-01-20T19:00:40.521Z,20.15
2023-01-20T19:07:26.341Z,19.40
2023-01-20T19:10:33.039Z,24.92
2023-01-20T19:13:54.673Z,20.27
2023-01-20T19:17:08.334Z,16.48
2023-01-20T19:20:21.290Z,18.08
2023-01-20T19:23:37.390Z,14.18
2023-01-20T19:27:30.617Z,19.42
2023-01-20T19:34:05.351Z,18.75
2023-01-20T19:41:09.091Z,20.02
2023-01-20T19:44:37.072Z,48.05
2023-01-20T19:47:47.662Z,40.75
2023-01-20T19:51:30.926Z,19.88
2023-01-20T19:54:52.768Z,13.73
2023-01-20T19:58:21.636Z,14.98
2023-01-20T20:01:34.109Z,14.63
2023-01-20T20:15:04.257Z,11.55
2023-01-20T20:18:27.787Z,12.63
2023-01-20T20:21:39.919Z,13.48
2023-01-20T20:24:48.080Z,12.23
2023-01-20T20:34:27.037Z,13.95
2023-01-20T20:41:22.636Z,14.82
2023-01-20T20:44:43.800Z,14.68
2023-01-20T20:48:01.969Z,11.98
2023-01-20T20:51:16.451Z,13.73
2023-01-20T20:54:35.530Z,14.88
2023-01-20T20:57:43.337Z,12.90
2023-01-20T21:01:37.183Z,14.63
2023-01-20T21:05:01.202Z,19.48
2023-01-20T21:08:06.955Z,14.68
2023-01-20T21:12:01.282Z,15.38
2023-01-20T21:15:31.792Z,18.73
2023-01-20T21:22:51.229Z,15.35
2023-01-20T21:26:22.187Z,14.93
2023-01-20T21:29:50.598Z,15.77
2023-01-20T21:33:16.218Z,15.50
2023-01-20T21:36:31.266Z,20.02
2023-01-20T21:39:50.544Z,18.75
2023-01-20T21:43:23.277Z,17.85
2023-01-20T21:46:56.320Z,17.55
2023-01-20T21:50:43.351Z,17.43
2023-01-20T21:54:06.300Z,20.48
2023-01-20T21:57:21.642Z,20.75
2023-01-20T22:00:38.891Z,20.40
2023-01-20T22:03:59.391Z,21.85
2023-01-20T22:07:38.803Z,17.25
2023-01-20T22:11:21.385Z,16.50
2023-01-20T22:25:56.348Z,16.83
2023-01-20T22:36:23.247Z,18.42
2023-01-20T22:47:30.809Z,18.80
2023-01-20T22:50:51.493Z,24.80
2023-01-20T22:54:24.562Z,30.80
2023-01-20T23:00:54.986Z,20.33
2023-01-20T23:11:45.050Z,21.05
2023-01-20T23:15:30.364Z,22.25
2023-01-20T23:18:36.853Z,29.37
2023-01-20T23:21:51.515Z,25.02
2023-01-20T23:25:08.411Z,22.63
2023-01-20T23:28:15.098Z,27.13
2023-01-20T23:32:22.843Z,25.70
2023-01-20T23:35:20.907Z,19.08
2023-01-20T23:38:47.170Z,19.48
2023-01-20T23:46:09.079Z,19.73
2023-01-20T23:50:19.659Z,19.60
2023-01-20T23:53:30.289Z,17.15
2023-01-20T23:57:29.883Z,15.73
